PABE/BET METAR and TAF weather

Enter ICAO airport designator
Station Type Date Time Source
PABE METAR 2022/01/19 19:53 UTC NOAA

PABE 191953Z 36013KT 9SM CLR M16/M18 A2971 RMK AO2 UPB24E25SNE24 SLP065 P0000 T11611183


Station Type Date Time Source
PABE Decoded METAR 2022/01/19 19:53 UTC NOAA

BETHEL AIRPORT, AK, United States (PABE) 60-47N 161-50W 46M
Jan 19, 2022 - 02:53 PM EST / 2022.01.19 1953 UTC
Wind: from the N (360 degrees) at 15 MPH (13 KT):0
Visibility: 9 mile(s):0
Sky conditions: clear
Precipitation last hour: A trace
Temperature: 3.0 F (-16.1 C)
Windchill: -14 F (-26 C):2
Dew Point: -0.9 F (-18.3 C)
Relative Humidity: 83%
Pressure (altimeter): 29.71 in. Hg (1006 hPa)
ob: PABE 191953Z 36013KT 9SM CLR M16/M18 A2971 RMK AO2 UPB24E25SNE24 SLP065 P0000 T11611183
cycle: 20

Station Type Date Time Source
PABE TAF 2022/01/19 18:36 UTC NOAA

TAF PABE 191735Z 1918/2018 01015KT P6SM DRSN SCT015 OVC080
TEMPO 1918/1920 4SM -SN BR OVC015

Example: see airport list